Tufão PARMA 2003: trajetória, intensidade e histórico
1/11/2003, 18:00:00
18/10/2003, 06:00:00 – 1/11/2003, 18:00:00
Trajetória histórica
Acompanhe a evolução e o deslocamento de Tufão PARMA em 2003, com a trajetória completa registrada, ventos máximos sustentados de 130 nós, pressão central mínima e cronologia detalhada.
| Data | Hora | Tipo | Ventokm/h | PressãohPa |
|---|---|---|---|---|
| 01/11 | 18:00 | EXCiclone extratropical | -- | 992 |
| 01/11 | 15:00 | EXCiclone extratropical | -- | 992 |
| 01/11 | 12:00 | EXCiclone extratropical | -- | 992 |
| 01/11 | 09:00 | EXCiclone extratropical | -- | 991 |
| 01/11 | 06:00 | EXCiclone extratropical | -- | 990 |
| 01/11 | 03:00 | EXCiclone extratropical | -- | 989 |
| 01/11 | 00:00 | EXCiclone extratropical | -- | 988 |
| 31/10 | 21:00 | EXCiclone extratropical | -- | 988 |
| 31/10 | 18:00 | EXCiclone extratropical | -- | 988 |
| 31/10 | 15:00 | TSTempestade tropical | -- | 986 |
| 31/10 | 12:00 | EXCiclone extratropical | 85 | 991 |
| 31/10 | 09:00 | TSTempestade tropical | 95 | 988 |
| 31/10 | 06:00 | STSTempestade tropical severa | 100 | 984 |
| 31/10 | 03:00 | TTufão | 115 | 978 |
| 31/10 | 00:00 | STSTempestade tropical severa | 130 | 972 |
| 30/10 | 21:00 | TTufão | 140 | 968 |
| 30/10 | 18:00 | TTufão | 150 | 963 |
| 30/10 | 15:00 | TTufão | 155 | 959 |
| 30/10 | 12:00 | TTufão | 165 | 954 |
| 30/10 | 09:00 | TTufão | 175 | 949 |
| 30/10 | 06:00 | STSupertufão | 185 | 944 |
| 30/10 | 03:00 | STSupertufão | 200 | 936 |
| 30/10 | 00:00 | STSupertufão | 215 | 927 |
| 29/10 | 21:00 | STSupertufão | 215 | 927 |
| 29/10 | 18:00 | STSupertufão | 215 | 927 |
| 29/10 | 15:00 | STSupertufão | 215 | 927 |
| 29/10 | 12:00 | STSupertufão | 215 | 927 |
| 29/10 | 09:00 | STSupertufão | 210 | 930 |
| 29/10 | 06:00 | STSupertufão | 205 | 933 |
| 29/10 | 03:00 | STSupertufão | 190 | 941 |
| 29/10 | 00:00 | TTufão | 175 | 949 |
| 28/10 | 21:00 | TTufão | 175 | 949 |
| 28/10 | 18:00 | TTufão | 175 | 949 |
| 28/10 | 15:00 | TTufão | 165 | 956 |
| 28/10 | 12:00 | TTufão | 150 | 963 |
| 28/10 | 09:00 | TTufão | 145 | 965 |
| 28/10 | 06:00 | STSTempestade tropical severa | 140 | 967 |
| 28/10 | 03:00 | TTufão | 140 | 967 |
| 28/10 | 00:00 | STSTempestade tropical severa | 140 | 967 |
| 27/10 | 21:00 | TTufão | 140 | 967 |
| 27/10 | 18:00 | STSTempestade tropical severa | 140 | 967 |
| 27/10 | 15:00 | TTufão | 140 | 967 |
| 27/10 | 12:00 | STSTempestade tropical severa | 140 | 967 |
| 27/10 | 09:00 | TTufão | 130 | 972 |
| 27/10 | 06:00 | STSTempestade tropical severa | 120 | 976 |
| 27/10 | 03:00 | TTufão | 120 | 976 |
| 27/10 | 00:00 | STSTempestade tropical severa | 120 | 976 |
| 26/10 | 21:00 | TTufão | 120 | 976 |
| 26/10 | 18:00 | STSTempestade tropical severa | 120 | 976 |
| 26/10 | 15:00 | TTufão | 135 | 970 |
| 26/10 | 12:00 | STSTempestade tropical severa | 150 | 963 |
| 26/10 | 09:00 | TTufão | 155 | 956 |
| 26/10 | 06:00 | STSTempestade tropical severa | 165 | 949 |
| 26/10 | 03:00 | TTufão | 170 | 949 |
| 26/10 | 00:00 | TTufão | 175 | 949 |
| 25/10 | 21:00 | STSupertufão | 185 | 944 |
| 25/10 | 18:00 | STSupertufão | 195 | 938 |
| 25/10 | 15:00 | STSupertufão | 205 | 933 |
| 25/10 | 12:00 | STSupertufão | 215 | 927 |
| 25/10 | 09:00 | STSupertufão | 220 | 925 |
| 25/10 | 06:00 | STSupertufão | 220 | 922 |
| 25/10 | 03:00 | STSupertufão | 230 | 919 |
| 25/10 | 00:00 | STSupertufão | 230 | 916 |
| 24/10 | 21:00 | STSupertufão | 235 | 913 |
| 24/10 | 18:00 | STSupertufão | 240 | 910 |
| 24/10 | 15:00 | STSupertufão | 240 | 910 |
| 24/10 | 12:00 | STSupertufão | 240 | 910 |
| 24/10 | 09:00 | STSupertufão | 235 | 913 |
| 24/10 | 06:00 | STSupertufão | 230 | 916 |
| 24/10 | 03:00 | STSupertufão | 220 | 922 |
| 24/10 | 00:00 | STSupertufão | 215 | 927 |
| 23/10 | 21:00 | STSupertufão | 205 | 933 |
| 23/10 | 18:00 | STSupertufão | 195 | 938 |
| 23/10 | 15:00 | STSupertufão | 200 | 936 |
| 23/10 | 12:00 | STSupertufão | 205 | 933 |
| 23/10 | 09:00 | STSupertufão | 185 | 944 |
| 23/10 | 06:00 | TTufão | 165 | 954 |
| 23/10 | 03:00 | TTufão | 155 | 961 |
| 23/10 | 00:00 | TTufão | 140 | 967 |
| 22/10 | 21:00 | TTufão | 130 | 972 |
| 22/10 | 18:00 | TTufão | 120 | 976 |
| 22/10 | 15:00 | TTufão | 120 | 976 |
| 22/10 | 12:00 | TTufão | 120 | 976 |
| 22/10 | 09:00 | TSTempestade tropical | 115 | 978 |
| 22/10 | 06:00 | TTufão | 110 | 980 |
| 22/10 | 03:00 | TSTempestade tropical | 100 | 984 |
| 22/10 | 00:00 | STSTempestade tropical severa | 95 | 987 |
| 21/10 | 21:00 | TSTempestade tropical | 90 | 989 |
| 21/10 | 18:00 | STSTempestade tropical severa | 85 | 991 |
| 21/10 | 15:00 | TSTempestade tropical | 85 | 991 |
| 21/10 | 12:00 | TSTempestade tropical | 85 | 991 |
| 21/10 | 09:00 | TSTempestade tropical | 75 | 994 |
| 21/10 | 06:00 | TSTempestade tropical | 65 | 997 |
| 21/10 | 03:00 | TSTempestade tropical | 65 | 997 |
| 21/10 | 00:00 | TSTempestade tropical | 65 | 997 |
| 20/10 | 21:00 | TDDepressão tropical | 60 | 999 |
| 20/10 | 18:00 | TDDepressão tropical | 55 | 1000 |
| 20/10 | 15:00 | TDDepressão tropical | 50 | 1001 |
| 20/10 | 12:00 | TDDepressão tropical | 45 | 1002 |
| 20/10 | 09:00 | TDDepressão tropical | 45 | 1001 |
| 20/10 | 06:00 | TDDepressão tropical | 35 | 1000 |
| 20/10 | 03:00 | TDDepressão tropical | 35 | 1002 |
| 20/10 | 00:00 | TDDepressão tropical | 35 | 1004 |
| 19/10 | 21:00 | TDDepressão tropical | 35 | 1004 |
| 19/10 | 18:00 | TDDepressão tropical | 35 | 1004 |
| 19/10 | 15:00 | TDDepressão tropical | 35 | 1004 |
| 19/10 | 12:00 | TDDepressão tropical | 35 | 1004 |
| 19/10 | 09:00 | TDDepressão tropical | 35 | 1005 |
| 19/10 | 06:00 | TDDepressão tropical | 30 | 1006 |
| 19/10 | 03:00 | TDDepressão tropical | 30 | 1006 |
| 19/10 | 00:00 | TDDepressão tropical | 30 | 1006 |
| 18/10 | 21:00 | TDDepressão tropical | 30 | 1006 |
| 18/10 | 18:00 | TDDepressão tropical | 30 | 1006 |
| 18/10 | 15:00 | TDDepressão tropical | 30 | 1006 |
| 18/10 | 12:00 | TDDepressão tropical | 30 | 1006 |
| 18/10 | 09:00 | TDDepressão tropical | 30 | 1006 |
| 18/10 | 06:00 | TDDepressão tropical | 30 | 1006 |
Cronologia de localização
117 Registos de localizaçãoDetalhes do evento
Ligações das fontes
A localização, a extensão e o estado de cada evento podem ser atualizados em momentos diferentes consoante a fonte. Confirme decisões importantes junto das autoridades oficiais de emergência.
Os registos de eventos provêm da NASA EONET e são complementados por registos de deslizamentos de terra do USGS FDSN. As análises e previsões de tempestades podem utilizar a NOAA NHC ou o JTWC, com registos históricos ATCF da UCAR/NCAR quando disponíveis. As imagens de satélite provêm da NASA Worldview/GIBS (GOES e Himawari) ou da EUMETSAT Meteosat, consoante a cobertura do mapa.
Fontes: NASA EONET · USGS · NOAA NHC · JTWC · UCAR/NCAR ATCF · NASA Worldview/GIBS · EUMETSAT Meteosat · OpenStreetMap contributors